createdAt,value
2022-11-24T00:01:20.668Z,10.57
2022-11-24T00:03:56.630Z,10.56
2022-11-24T00:06:24.296Z,10.49
2022-11-24T00:08:51.353Z,10.60
2022-11-24T00:11:29.550Z,10.59
2022-11-24T00:13:57.344Z,10.93
2022-11-24T00:16:26.554Z,10.68
2022-11-24T00:18:55.461Z,10.09
2022-11-24T00:21:23.017Z,10.68
2022-11-24T00:23:50.092Z,10.48
2022-11-24T00:26:18.011Z,10.28
2022-11-24T00:28:46.717Z,10.52
2022-11-24T00:31:25.432Z,10.78
2022-11-24T00:33:55.163Z,11.13
2022-11-24T00:36:24.088Z,11.01
2022-11-24T00:38:59.119Z,11.10
2022-11-24T00:41:27.828Z,10.78
2022-11-24T00:43:55.244Z,11.00
2022-11-24T00:46:23.045Z,11.32
2022-11-24T00:48:50.633Z,10.83
2022-11-24T00:51:19.303Z,10.31
2022-11-24T00:53:46.233Z,10.87
2022-11-24T00:56:13.617Z,10.68
2022-11-24T00:58:40.627Z,11.11
2022-11-24T01:01:11.137Z,10.73
2022-11-24T01:03:37.913Z,10.44
2022-11-24T01:06:11.132Z,10.06
2022-11-24T01:08:39.423Z,10.08
2022-11-24T01:11:24.435Z,9.68
2022-11-24T01:13:57.950Z,9.81
2022-11-24T01:16:26.278Z,9.83
2022-11-24T01:18:53.219Z,9.56
2022-11-24T01:21:20.904Z,9.66
2022-11-24T01:23:48.085Z,9.78
2022-11-24T01:26:19.366Z,10.01
2022-11-24T01:28:47.811Z,9.86
2022-11-24T01:31:15.989Z,9.82
2022-11-24T01:33:42.874Z,9.61
2022-11-24T01:36:09.422Z,9.64
2022-11-24T01:38:35.877Z,9.82
2022-11-24T01:41:18.943Z,10.00
2022-11-24T01:43:46.433Z,10.21
2022-11-24T01:46:30.641Z,10.26
2022-11-24T01:49:18.268Z,10.28
2022-11-24T01:52:04.500Z,10.31
2022-11-24T01:54:38.371Z,10.38
2022-11-24T01:57:19.552Z,10.59
2022-11-24T01:59:50.853Z,10.80
2022-11-24T02:02:19.374Z,10.60
2022-11-24T02:04:47.780Z,10.54
2022-11-24T02:07:15.034Z,10.47
2022-11-24T02:09:59.245Z,10.62
2022-11-24T02:12:27.517Z,10.27
2022-11-24T02:14:55.696Z,10.46
2022-11-24T02:17:22.289Z,10.50
2022-11-24T02:19:58.311Z,10.60
2022-11-24T02:22:56.817Z,10.15
2022-11-24T02:25:42.020Z,9.85
2022-11-24T02:28:17.422Z,9.89
2022-11-24T02:30:44.686Z,10.06
2022-11-24T02:33:12.850Z,10.19
2022-11-24T02:35:39.502Z,10.28
2022-11-24T02:38:05.937Z,10.74
2022-11-24T02:40:33.217Z,10.78
2022-11-24T02:43:12.796Z,10.78
2022-11-24T02:45:39.727Z,10.73
2022-11-24T02:48:06.516Z,10.82
2022-11-24T02:50:32.958Z,10.99
2022-11-24T02:52:59.404Z,11.22
2022-11-24T02:55:25.833Z,11.17
2022-11-24T02:57:52.286Z,10.63
2022-11-24T03:00:18.877Z,10.61
2022-11-24T03:02:45.411Z,10.42
2022-11-24T03:05:13.366Z,10.60
2022-11-24T03:07:41.584Z,10.09
2022-11-24T03:10:08.559Z,9.84
2022-11-24T03:12:37.381Z,9.81
2022-11-24T03:15:04.838Z,9.39
2022-11-24T03:17:31.357Z,9.39
2022-11-24T03:20:01.518Z,9.51
2022-11-24T03:22:30.915Z,9.53
2022-11-24T03:24:57.387Z,10.23
2022-11-24T03:27:23.864Z,10.08
2022-11-24T03:29:50.357Z,10.30
2022-11-24T03:32:16.794Z,10.66
2022-11-24T03:34:43.263Z,10.51
2022-11-24T03:37:09.817Z,10.71
2022-11-24T03:39:36.306Z,10.95
2022-11-24T03:42:02.845Z,10.95
2022-11-24T03:44:29.279Z,11.01
2022-11-24T03:46:55.737Z,11.16
2022-11-24T03:49:22.188Z,11.30
2022-11-24T03:51:48.659Z,11.10
2022-11-24T03:54:15.140Z,10.97
2022-11-24T03:56:41.640Z,11.06
2022-11-24T03:59:08.108Z,11.21
2022-11-24T04:01:34.710Z,11.45
2022-11-24T04:04:01.236Z,11.62
2022-11-24T04:06:27.693Z,11.53
2022-11-24T04:08:54.130Z,11.67
2022-11-24T04:11:20.565Z,11.62
2022-11-24T04:14:13.207Z,10.75
2022-11-24T04:16:50.959Z,10.63
2022-11-24T04:19:17.545Z,10.97
2022-11-24T04:21:44.005Z,10.57
2022-11-24T04:24:10.553Z,10.88
2022-11-24T04:26:37.006Z,10.73
2022-11-24T04:29:03.543Z,10.57
2022-11-24T04:31:30.009Z,10.55
2022-11-24T04:33:56.520Z,10.23
2022-11-24T04:36:23.027Z,10.09
2022-11-24T04:39:19.709Z,10.42
2022-11-24T04:41:38.968Z,10.37
2022-11-24T04:44:05.411Z,10.37
2022-11-24T04:46:31.882Z,10.66
2022-11-24T04:48:58.377Z,10.45
2022-11-24T04:51:24.867Z,10.48
2022-11-24T04:53:51.426Z,10.15
2022-11-24T04:56:17.915Z,10.48
2022-11-24T04:58:44.373Z,10.26
2022-11-24T05:01:10.858Z,10.62
2022-11-24T05:03:37.316Z,10.90
2022-11-24T05:06:03.996Z,11.09
2022-11-24T05:08:30.443Z,11.24
2022-11-24T05:10:56.938Z,11.09
2022-11-24T05:13:23.378Z,11.29
2022-11-24T05:15:49.894Z,11.23
2022-11-24T05:18:16.383Z,11.34
2022-11-24T05:20:43.225Z,11.30
2022-11-24T05:23:09.912Z,11.36
2022-11-24T05:25:36.672Z,11.10
2022-11-24T05:28:05.727Z,10.89
2022-11-24T05:30:32.540Z,10.79
2022-11-24T05:32:59.069Z,10.79
2022-11-24T05:35:25.526Z,10.99
2022-11-24T05:37:52.036Z,10.75
2022-11-24T05:40:18.500Z,11.08
2022-11-24T05:42:47.734Z,11.23
2022-11-24T05:45:18.623Z,11.16
2022-11-24T05:47:45.908Z,11.39
2022-11-24T05:50:15.048Z,11.02
2022-11-24T05:52:41.573Z,10.80
2022-11-24T05:55:09.469Z,10.67
2022-11-24T05:57:35.975Z,10.71
2022-11-24T06:00:05.290Z,10.52
2022-11-24T06:02:31.833Z,10.30
2022-11-24T06:04:58.383Z,9.91
2022-11-24T06:07:24.882Z,10.04
2022-11-24T06:09:51.379Z,10.35
2022-11-24T06:12:17.974Z,10.53
2022-11-24T06:14:44.496Z,10.86
2022-11-24T06:17:11.988Z,10.81
2022-11-24T06:19:41.943Z,10.57
2022-11-24T06:22:08.883Z,10.17
2022-11-24T06:24:35.683Z,10.30
2022-11-24T06:27:02.317Z,10.19
2022-11-24T06:29:28.748Z,10.40
2022-11-24T06:31:55.271Z,10.29
2022-11-24T06:34:21.843Z,10.34
2022-11-24T06:36:48.403Z,10.34
2022-11-24T06:39:14.972Z,10.57
2022-11-24T06:41:41.500Z,10.38
2022-11-24T06:44:07.984Z,9.89
2022-11-24T06:46:34.488Z,10.26
2022-11-24T06:49:00.939Z,10.20
2022-11-24T06:51:27.588Z,9.73
2022-11-24T06:53:54.026Z,9.68
2022-11-24T06:56:22.024Z,9.41
2022-11-24T06:58:50.758Z,9.81
2022-11-24T07:01:28.415Z,9.63
2022-11-24T07:03:56.556Z,9.46
2022-11-24T07:06:25.323Z,9.35
2022-11-24T07:08:52.797Z,9.37
2022-11-24T07:11:22.632Z,9.73
2022-11-24T07:13:53.685Z,9.44
2022-11-24T07:16:25.378Z,9.36
2022-11-24T07:18:53.575Z,9.96
2022-11-24T07:21:22.363Z,9.87
2022-11-24T07:23:50.573Z,10.13
2022-11-24T07:26:20.176Z,10.54
2022-11-24T07:28:47.188Z,10.68
2022-11-24T07:31:16.391Z,10.53
2022-11-24T07:33:42.874Z,11.04
2022-11-24T07:36:09.665Z,10.66
2022-11-24T07:38:36.171Z,10.51
2022-11-24T07:41:04.844Z,10.55
2022-11-24T07:43:33.016Z,10.66
2022-11-24T07:46:00.288Z,10.99
2022-11-24T07:48:27.060Z,10.91
2022-11-24T07:50:56.116Z,11.11
2022-11-24T07:53:22.915Z,10.82
2022-11-24T07:55:56.673Z,10.80
2022-11-24T07:58:26.425Z,10.88
2022-11-24T08:00:56.160Z,11.13
2022-11-24T08:03:23.503Z,10.98
2022-11-24T08:08:43.468Z,11.43
2022-11-24T08:11:12.876Z,11.68
2022-11-24T08:13:40.313Z,11.50
2022-11-24T08:16:09.552Z,11.30
2022-11-24T08:18:38.847Z,11.75
2022-11-24T08:21:06.523Z,11.61
2022-11-24T08:23:33.940Z,11.48
2022-11-24T08:26:05.463Z,11.48
2022-11-24T08:28:32.994Z,11.62
2022-11-24T08:31:08.643Z,11.48
2022-11-24T08:33:35.744Z,11.39
2022-11-24T08:36:07.257Z,11.47
2022-11-24T08:38:34.240Z,11.50
2022-11-24T08:41:18.901Z,11.58
2022-11-24T08:43:45.405Z,11.35
2022-11-24T08:46:15.774Z,11.22
2022-11-24T08:48:43.314Z,11.03
2022-11-24T08:51:12.770Z,10.87
2022-11-24T08:53:40.721Z,10.66
2022-11-24T08:56:09.401Z,10.80
2022-11-24T08:58:37.411Z,10.74
2022-11-24T09:01:12.227Z,10.76
2022-11-24T09:03:43.373Z,11.37
2022-11-24T09:06:12.985Z,11.12
2022-11-24T09:08:39.612Z,11.40
2022-11-24T09:11:12.529Z,11.18
2022-11-24T09:13:40.132Z,10.93
2022-11-24T09:16:08.507Z,10.90
2022-11-24T09:18:35.157Z,10.95
2022-11-24T09:21:11.989Z,10.95
2022-11-24T09:23:38.844Z,11.48
2022-11-24T09:26:11.141Z,11.44
2022-11-24T09:28:39.825Z,11.54
2022-11-24T09:31:10.104Z,11.73
2022-11-24T09:33:37.627Z,12.31
2022-11-24T09:36:05.720Z,12.44
2022-11-24T09:38:32.345Z,12.11
2022-11-24T09:41:17.278Z,12.44
2022-11-24T09:44:17.716Z,12.31
2022-11-24T09:46:58.242Z,12.59
2022-11-24T09:49:37.940Z,12.70
2022-11-24T09:52:14.305Z,12.69
2022-11-24T09:54:58.122Z,12.69
2022-11-24T09:57:32.740Z,12.80
2022-11-24T10:00:13.065Z,12.60
2022-11-24T10:02:39.586Z,12.75
2022-11-24T10:05:06.995Z,12.88
2022-11-24T10:08:02.468Z,13.09
2022-11-24T10:10:48.855Z,13.22
2022-11-24T10:13:31.293Z,13.56
2022-11-24T10:16:13.751Z,13.45
2022-11-24T10:19:07.588Z,13.41
2022-11-24T10:21:51.187Z,13.42
2022-11-24T10:24:36.201Z,13.53
2022-11-24T10:27:13.649Z,13.88
2022-11-24T10:29:41.606Z,13.98
2022-11-24T10:32:19.321Z,14.07
2022-11-24T10:34:49.585Z,13.97
2022-11-24T10:37:21.747Z,13.78
2022-11-24T10:40:17.172Z,13.57
2022-11-24T10:42:55.480Z,13.79
2022-11-24T10:45:22.813Z,13.65
2022-11-24T10:47:49.947Z,13.76
2022-11-24T10:50:21.525Z,13.50
2022-11-24T10:53:14.499Z,13.92
2022-11-24T10:55:56.981Z,13.92
2022-11-24T10:58:25.084Z,13.65
2022-11-24T11:00:51.612Z,13.53
2022-11-24T11:03:26.472Z,13.60
2022-11-24T11:06:03.036Z,13.50
2022-11-24T11:08:33.955Z,13.24
2022-11-24T11:11:19.903Z,13.41
2022-11-24T11:13:49.644Z,13.14
2022-11-24T11:16:26.118Z,13.50
2022-11-24T11:18:53.419Z,13.24
2022-11-24T11:21:33.831Z,13.65
2022-11-24T11:24:03.834Z,13.71
2022-11-24T11:26:36.488Z,13.69
2022-11-24T11:34:51.916Z,13.77
2022-11-24T11:37:20.433Z,14.06
2022-11-24T11:39:49.988Z,14.34
2022-11-24T11:43:00.643Z,14.44
2022-11-24T11:45:26.127Z,14.63
2022-11-24T11:48:00.595Z,14.50
2022-11-24T11:51:06.500Z,14.03
2022-11-24T11:53:45.183Z,13.91
2022-11-24T11:56:25.665Z,13.71
2022-11-24T11:59:10.595Z,13.73
2022-11-24T12:02:11.388Z,13.79
2022-11-24T12:04:47.058Z,13.27
2022-11-24T12:07:29.986Z,13.03
2022-11-24T12:10:14.842Z,13.38
2022-11-24T12:12:41.234Z,13.50
2022-11-24T12:15:29.676Z,13.80
2022-11-24T12:18:33.512Z,13.68
2022-11-24T12:21:35.483Z,13.66
2022-11-24T12:24:18.863Z,13.68
2022-11-24T12:27:13.398Z,13.96
2022-11-24T12:30:04.985Z,13.75
2022-11-24T12:33:02.455Z,14.05
2022-11-24T12:35:49.100Z,14.25
2022-11-24T12:38:50.500Z,14.73
2022-11-24T12:41:46.283Z,14.89
2022-11-24T12:44:46.908Z,14.73
2022-11-24T12:47:13.367Z,14.80
2022-11-24T12:50:17.707Z,15.18
2022-11-24T12:52:55.578Z,15.55
2022-11-24T12:55:27.545Z,15.58
2022-11-24T12:58:14.224Z,15.61
2022-11-24T13:00:56.769Z,15.87
2022-11-24T13:03:46.001Z,16.20
2022-11-24T13:06:32.730Z,16.45
2022-11-24T13:09:10.290Z,16.73
2022-11-24T13:12:12.249Z,17.00
2022-11-24T13:14:42.495Z,17.26
2022-11-24T13:18:01.125Z,17.30
2022-11-24T13:20:36.316Z,17.44
2022-11-24T13:23:05.200Z,17.52
2022-11-24T13:25:34.480Z,17.53
2022-11-24T13:28:03.286Z,17.38
2022-11-24T13:30:53.348Z,17.51
2022-11-24T13:33:27.107Z,17.60
2022-11-24T13:36:02.460Z,17.67
2022-11-24T13:38:43.734Z,17.76
2022-11-24T13:41:31.602Z,17.87
2022-11-24T13:44:16.269Z,18.49
2022-11-24T13:47:06.107Z,18.33
2022-11-24T13:49:44.231Z,18.42
2022-11-24T13:52:48.072Z,18.61
2022-11-24T13:55:14.468Z,18.74
2022-11-24T13:57:50.760Z,18.94
2022-11-24T14:00:35.185Z,19.09
2022-11-24T14:03:24.609Z,19.30
2022-11-24T14:05:53.071Z,19.34
2022-11-24T14:08:25.958Z,19.34
2022-11-24T14:10:57.660Z,19.21
2022-11-24T14:13:28.054Z,19.23
2022-11-24T14:16:18.244Z,19.23
2022-11-24T14:18:47.647Z,18.59
2022-11-24T14:21:19.786Z,18.55
2022-11-24T14:24:12.436Z,18.45
2022-11-24T14:26:41.018Z,18.05
2022-11-24T14:29:16.671Z,18.05
2022-11-24T14:31:59.302Z,18.06
2022-11-24T14:34:28.798Z,17.95
2022-11-24T14:36:56.921Z,17.81
2022-11-24T14:39:26.224Z,17.62
2022-11-24T14:42:05.460Z,17.34
2022-11-24T14:44:46.544Z,17.20
2022-11-24T14:47:25.743Z,16.92
2022-11-24T14:49:58.063Z,16.67
2022-11-24T14:52:25.982Z,16.57
2022-11-24T14:54:58.999Z,16.47
2022-11-24T14:57:33.711Z,16.29
2022-11-24T15:00:26.069Z,16.33
2022-11-24T15:03:01.484Z,16.14
2022-11-24T15:05:57.065Z,16.12
2022-11-24T15:08:37.307Z,15.99
2022-11-24T15:11:06.778Z,15.89
2022-11-24T15:13:39.959Z,15.75
2022-11-24T15:16:15.850Z,15.64
2022-11-24T15:18:46.348Z,15.57
2022-11-24T15:21:18.896Z,15.53
2022-11-24T15:24:15.150Z,15.42
2022-11-24T15:26:42.367Z,15.45
2022-11-24T15:29:10.446Z,15.33
2022-11-24T15:31:37.830Z,15.37
2022-11-24T15:34:04.369Z,15.31
2022-11-24T15:36:30.967Z,15.21
2022-11-24T15:38:57.452Z,15.20
2022-11-24T15:41:31.126Z,15.13
2022-11-24T15:43:57.665Z,15.02
2022-11-24T15:46:24.723Z,15.00
2022-11-24T15:48:51.218Z,14.93
2022-11-24T15:51:17.800Z,14.88
2022-11-24T15:53:49.847Z,14.84
2022-11-24T15:56:31.019Z,14.67
2022-11-24T15:58:57.549Z,14.57
2022-11-24T16:01:29.883Z,14.59
2022-11-24T16:03:56.385Z,14.52
2022-11-24T16:06:24.948Z,14.35
2022-11-24T16:08:53.428Z,14.37
2022-11-24T16:11:20.535Z,14.28
2022-11-24T16:13:51.914Z,14.19
2022-11-24T16:16:20.913Z,14.00
2022-11-24T16:18:47.433Z,14.02
2022-11-24T16:21:13.919Z,14.00
2022-11-24T16:23:40.626Z,14.03
2022-11-24T16:26:07.435Z,14.02
2022-11-24T16:28:34.580Z,14.02
2022-11-24T16:31:01.417Z,13.94
2022-11-24T16:33:30.661Z,13.86
2022-11-24T16:35:57.123Z,13.81
2022-11-24T16:38:23.590Z,13.77
2022-11-24T16:40:54.917Z,13.77
2022-11-24T16:43:21.685Z,13.43
2022-11-24T16:46:15.271Z,13.47
2022-11-24T16:48:41.901Z,13.47
2022-11-24T16:51:09.827Z,13.39
2022-11-24T16:53:37.153Z,13.38
2022-11-24T16:56:03.797Z,13.39
2022-11-24T16:58:30.240Z,13.39
2022-11-24T17:01:10.696Z,13.39
2022-11-24T17:03:38.440Z,13.37
2022-11-24T17:06:07.388Z,13.34
2022-11-24T17:08:37.377Z,13.33
2022-11-24T17:11:06.650Z,13.33
2022-11-24T17:13:34.123Z,13.19
2022-11-24T17:16:09.059Z,13.17
2022-11-24T17:18:36.234Z,13.07
2022-11-24T17:21:09.218Z,12.90
2022-11-24T17:23:36.135Z,12.89
2022-11-24T17:26:07.319Z,12.74
2022-11-24T17:28:34.991Z,12.25
2022-11-24T17:31:09.457Z,12.19
2022-11-24T17:33:36.405Z,12.14
2022-11-24T17:36:06.121Z,11.99
2022-11-24T17:38:32.992Z,12.24
2022-11-24T17:40:59.632Z,12.45
2022-11-24T17:43:26.105Z,12.57
2022-11-24T17:45:57.209Z,12.56
2022-11-24T17:48:24.106Z,12.60
2022-11-24T17:51:02.649Z,12.72
2022-11-24T17:53:29.933Z,12.78
2022-11-24T17:56:01.002Z,12.84
2022-11-24T17:58:29.107Z,12.79
2022-11-24T18:00:56.008Z,12.80
2022-11-24T18:03:22.882Z,12.83
2022-11-24T18:05:49.389Z,12.90
2022-11-24T18:08:15.869Z,12.82
2022-11-24T18:10:42.360Z,12.80
2022-11-24T18:13:08.842Z,12.83
2022-11-24T18:15:35.441Z,12.82
2022-11-24T18:18:03.012Z,12.82
2022-11-24T18:20:29.755Z,12.74
2022-11-24T18:23:05.657Z,12.84
2022-11-24T18:25:32.517Z,12.77
2022-11-24T18:27:58.984Z,12.60
2022-11-24T18:30:25.438Z,12.59
2022-11-24T18:32:51.904Z,12.63
2022-11-24T18:35:18.377Z,12.62
2022-11-24T18:37:44.827Z,12.64
2022-11-24T18:40:11.390Z,12.72
2022-11-24T18:42:37.866Z,12.61
2022-11-24T18:45:05.241Z,12.66
2022-11-24T18:47:31.699Z,12.70
2022-11-24T18:49:58.155Z,12.73
2022-11-24T18:52:24.648Z,12.73
2022-11-24T18:54:51.256Z,12.64
2022-11-24T18:57:17.688Z,12.66
2022-11-24T18:59:44.153Z,12.69
2022-11-24T19:02:10.632Z,12.68
2022-11-24T19:04:37.323Z,12.65
2022-11-24T19:07:03.927Z,12.63
2022-11-24T19:09:30.360Z,12.60
2022-11-24T19:11:56.841Z,12.56
2022-11-24T19:14:23.370Z,12.53
2022-11-24T19:16:50.183Z,12.44
2022-11-24T19:19:17.680Z,12.46
2022-11-24T19:21:44.681Z,12.35
2022-11-24T19:24:11.866Z,12.38
2022-11-24T19:26:39.454Z,12.38
2022-11-24T19:29:07.008Z,12.42
2022-11-24T19:31:34.872Z,12.41
2022-11-24T19:34:02.062Z,12.45
2022-11-24T19:36:28.549Z,12.41
2022-11-24T19:38:57.391Z,12.38
2022-11-24T19:41:28.699Z,12.38
2022-11-24T19:43:55.613Z,12.28
2022-11-24T19:46:23.858Z,12.29
2022-11-24T19:48:51.092Z,12.14
2022-11-24T19:51:20.929Z,12.22
2022-11-24T19:53:47.933Z,12.24
2022-11-24T19:56:17.493Z,12.07
2022-11-24T19:58:44.478Z,11.98
2022-11-24T20:01:16.740Z,11.86
2022-11-24T20:03:45.285Z,11.88
2022-11-24T20:06:14.073Z,12.03
2022-11-24T20:08:42.279Z,12.03
2022-11-24T20:11:12.111Z,12.17
2022-11-24T20:13:40.676Z,11.71
2022-11-24T20:16:12.428Z,11.91
2022-11-24T20:18:42.148Z,12.02
2022-11-24T20:21:15.083Z,12.08
2022-11-24T20:23:42.187Z,11.82
2022-11-24T20:26:15.880Z,11.90
2022-11-24T20:28:43.056Z,11.82
2022-11-24T20:31:14.765Z,11.67
2022-11-24T20:33:41.907Z,11.49
2022-11-24T20:36:13.359Z,11.33
2022-11-24T20:38:41.988Z,11.31
2022-11-24T20:41:11.416Z,11.43
2022-11-24T20:43:39.367Z,11.43
2022-11-24T20:46:09.473Z,11.56
2022-11-24T20:48:36.709Z,11.58
2022-11-24T20:51:09.258Z,11.56
2022-11-24T20:53:36.788Z,11.72
2022-11-24T20:56:10.550Z,11.76
2022-11-24T20:58:38.448Z,11.86
2022-11-24T21:01:12.592Z,11.95
2022-11-24T21:03:43.264Z,11.93
2022-11-24T21:06:12.153Z,12.02
2022-11-24T21:08:40.960Z,12.05
2022-11-24T21:11:09.996Z,11.89
2022-11-24T21:13:37.871Z,11.78
2022-11-24T21:16:30.419Z,11.66
2022-11-24T21:18:59.786Z,11.63
2022-11-24T21:21:30.676Z,11.67
2022-11-24T21:23:57.185Z,11.79
2022-11-24T21:26:23.692Z,11.79
2022-11-24T21:28:50.183Z,11.82
2022-11-24T21:31:19.334Z,11.90
2022-11-24T21:33:48.562Z,12.02
2022-11-24T21:36:17.403Z,11.94
2022-11-24T21:38:44.323Z,11.92
2022-11-24T21:41:11.968Z,11.95
2022-11-24T21:43:38.442Z,11.95
2022-11-24T21:46:10.417Z,12.01
2022-11-24T21:48:38.222Z,11.95
2022-11-24T21:51:07.294Z,11.91
2022-11-24T21:53:36.211Z,12.05
2022-11-24T21:56:10.543Z,12.11
2022-11-24T21:58:37.007Z,12.17
2022-11-24T22:01:07.751Z,12.14
2022-11-24T22:03:34.768Z,12.14
2022-11-24T22:06:01.756Z,12.20
2022-11-24T22:08:30.936Z,12.21
2022-11-24T22:11:05.968Z,12.22
2022-11-24T22:13:32.579Z,12.13
2022-11-24T22:16:13.825Z,12.14
2022-11-24T22:18:42.172Z,12.09
2022-11-24T22:21:15.249Z,12.14
2022-11-24T22:23:42.796Z,12.20
2022-11-24T22:26:15.332Z,12.22
2022-11-24T22:28:43.265Z,12.21
2022-11-24T22:31:21.654Z,12.26
2022-11-24T22:33:49.809Z,12.30
2022-11-24T22:36:18.249Z,12.31
2022-11-24T22:38:44.748Z,12.34
2022-11-24T22:41:14.657Z,12.33
2022-11-24T22:43:43.626Z,12.30
2022-11-24T22:46:12.657Z,12.16
2022-11-24T22:48:39.729Z,12.16
2022-11-24T22:51:09.621Z,12.00
2022-11-24T22:53:36.158Z,11.92
2022-11-24T22:56:08.080Z,11.87
2022-11-24T22:58:34.576Z,11.91
2022-11-24T23:01:13.591Z,11.91
2022-11-24T23:03:41.075Z,11.91
2022-11-24T23:06:14.634Z,11.88
2022-11-24T23:08:41.554Z,11.91
2022-11-24T23:11:14.689Z,11.96
2022-11-24T23:13:41.698Z,12.03
2022-11-24T23:16:14.550Z,12.01
2022-11-24T23:18:42.237Z,12.09
2022-11-24T23:21:08.651Z,12.09
2022-11-24T23:23:35.280Z,12.11
2022-11-24T23:26:03.917Z,12.13
2022-11-24T23:28:30.916Z,12.14
2022-11-24T23:31:01.338Z,12.20
2022-11-24T23:33:27.919Z,12.20
2022-11-24T23:35:54.395Z,12.09
2022-11-24T23:38:20.857Z,12.14
2022-11-24T23:40:47.343Z,12.05
2022-11-24T23:43:13.791Z,12.23
2022-11-24T23:45:40.291Z,12.23
2022-11-24T23:48:06.804Z,12.38
2022-11-24T23:50:35.156Z,12.43
2022-11-24T23:53:01.739Z,12.49
2022-11-24T23:55:28.180Z,12.50
2022-11-24T23:57:54.636Z,12.62
